createdAt,value
2023-03-30T00:00:15.255Z,98.77
2023-03-30T00:02:45.334Z,98.92
2023-03-30T00:08:14.641Z,99.12
2023-03-30T00:10:49.427Z,98.59
2023-03-30T00:13:18.198Z,98.77
2023-03-30T00:15:46.615Z,98.81
2023-03-30T00:18:14.801Z,98.78
2023-03-30T00:20:48.693Z,98.78
2023-03-30T00:23:17.018Z,98.79
2023-03-30T00:25:46.490Z,98.89
2023-03-30T00:28:14.858Z,99.05
2023-03-30T00:30:44.385Z,99.08
2023-03-30T00:33:14.346Z,99.28
2023-03-30T00:35:42.497Z,99.42
2023-03-30T00:38:12.127Z,99.50
2023-03-30T00:40:40.945Z,99.74
2023-03-30T00:43:14.289Z,99.93
2023-03-30T00:45:42.667Z,99.98
2023-03-30T00:48:17.821Z,99.99
2023-03-30T00:50:53.188Z,100.00
2023-03-30T00:53:34.617Z,100.00
2023-03-30T00:56:05.043Z,100.00
2023-03-30T00:58:33.590Z,100.00
2023-03-30T01:01:04.277Z,100.00
2023-03-30T01:03:37.839Z,100.00
2023-03-30T01:06:07.659Z,100.00
2023-03-30T01:08:36.618Z,100.00
2023-03-30T01:11:10.124Z,100.00
2023-03-30T01:13:44.728Z,100.00
2023-03-30T01:16:41.897Z,100.00
2023-03-30T01:20:09.146Z,100.00
2023-03-30T01:23:02.207Z,100.00
2023-03-30T01:25:36.857Z,100.00
2023-03-30T01:28:19.754Z,100.00
2023-03-30T01:31:00.433Z,100.00
2023-03-30T01:33:47.533Z,100.00
2023-03-30T01:36:50.227Z,100.00
2023-03-30T01:39:33.908Z,100.00
2023-03-30T01:42:05.233Z,100.00
2023-03-30T01:44:46.388Z,100.00
2023-03-30T01:47:23.548Z,100.00
2023-03-30T01:50:21.140Z,100.00
2023-03-30T01:53:03.428Z,100.00
2023-03-30T01:55:49.439Z,100.00
2023-03-30T01:58:24.288Z,100.00
2023-03-30T02:00:56.106Z,100.00
2023-03-30T02:03:31.875Z,100.00
2023-03-30T02:06:04.182Z,100.00
2023-03-30T02:08:34.689Z,100.00
2023-03-30T02:11:04.823Z,100.00
2023-03-30T02:13:33.585Z,100.00
2023-03-30T02:16:05.308Z,100.00
2023-03-30T02:18:34.045Z,100.00
2023-03-30T02:21:02.765Z,100.00
2023-03-30T02:23:35.599Z,100.00
2023-03-30T02:26:04.888Z,100.00
2023-03-30T02:28:35.390Z,100.00
2023-03-30T02:31:04.099Z,100.00
2023-03-30T02:33:53.204Z,100.00
2023-03-30T02:36:32.314Z,100.00
2023-03-30T02:39:06.158Z,100.00
2023-03-30T02:42:02.217Z,100.00
2023-03-30T02:44:56.308Z,100.00
2023-03-30T02:47:34.737Z,100.00
2023-03-30T02:50:15.437Z,100.00
2023-03-30T02:52:57.147Z,100.00
2023-03-30T02:55:34.828Z,100.00
2023-03-30T02:58:20.356Z,100.00
2023-03-30T03:01:34.063Z,100.00
2023-03-30T03:04:10.226Z,100.00
2023-03-30T03:06:45.641Z,100.00
2023-03-30T03:09:15.510Z,100.00
2023-03-30T03:11:43.772Z,100.00
2023-03-30T03:14:12.930Z,100.00
2023-03-30T03:16:41.311Z,100.00
2023-03-30T03:19:16.785Z,100.00
2023-03-30T03:21:48.414Z,100.00
2023-03-30T03:24:17.830Z,100.00
2023-03-30T03:27:12.458Z,100.00
2023-03-30T03:30:16.459Z,100.00
2023-03-30T03:32:51.710Z,100.00
2023-03-30T03:35:20.362Z,100.00
2023-03-30T03:37:49.642Z,100.00
2023-03-30T03:40:20.804Z,100.00
2023-03-30T03:42:49.324Z,100.00
2023-03-30T03:45:19.187Z,100.00
2023-03-30T03:47:56.203Z,100.00
2023-03-30T03:51:01.899Z,100.00
2023-03-30T03:53:33.702Z,100.00
2023-03-30T03:56:04.765Z,100.00
2023-03-30T03:58:33.844Z,100.00
2023-03-30T04:01:02.695Z,100.00
2023-03-30T04:03:32.560Z,100.00
2023-03-30T04:06:01.354Z,100.00
2023-03-30T04:08:30.563Z,100.00
2023-03-30T04:11:08.216Z,100.00
2023-03-30T04:13:55.819Z,100.00
2023-03-30T04:16:39.265Z,100.00
2023-03-30T04:19:27.805Z,100.00
2023-03-30T04:22:19.972Z,100.00
2023-03-30T04:25:05.678Z,100.00
2023-03-30T04:27:43.772Z,99.93
2023-03-30T04:30:24.830Z,99.63
2023-03-30T04:33:14.755Z,99.43
2023-03-30T04:35:43.194Z,99.48
2023-03-30T04:38:36.673Z,99.19
2023-03-30T04:41:26.706Z,98.68
2023-03-30T04:44:03.191Z,98.30
2023-03-30T04:47:07.305Z,98.54
2023-03-30T04:49:54.631Z,98.55
2023-03-30T04:52:41.632Z,98.20
2023-03-30T04:55:30.871Z,98.10
2023-03-30T04:58:12.112Z,97.93
2023-03-30T05:00:59.815Z,98.04
2023-03-30T05:03:57.605Z,97.79
2023-03-30T05:06:42.241Z,97.60
2023-03-30T05:09:13.303Z,97.49
2023-03-30T05:12:05.224Z,97.69
2023-03-30T05:14:39.971Z,97.61
2023-03-30T05:17:26.754Z,97.67
2023-03-30T05:20:08.748Z,97.65
2023-03-30T05:22:51.858Z,97.28
2023-03-30T05:25:36.267Z,97.07
2023-03-30T05:28:27.367Z,96.75
2023-03-30T05:31:14.374Z,96.55
2023-03-30T05:33:55.976Z,96.33
2023-03-30T05:36:46.433Z,96.15
2023-03-30T05:39:50.196Z,95.91
2023-03-30T05:42:43.985Z,95.52
2023-03-30T05:45:44.733Z,94.85
2023-03-30T05:48:34.621Z,94.53
2023-03-30T05:51:09.135Z,94.04
2023-03-30T05:54:01.784Z,93.34
2023-03-30T05:56:51.787Z,93.06
2023-03-30T05:59:47.564Z,93.07
2023-03-30T06:02:35.200Z,92.62
2023-03-30T06:05:06.789Z,92.35
2023-03-30T06:07:35.642Z,91.87
2023-03-30T06:10:06.309Z,91.42
2023-03-30T06:12:34.959Z,90.90
2023-03-30T06:15:03.803Z,91.08
2023-03-30T06:17:42.893Z,90.75
2023-03-30T06:20:12.851Z,90.42
2023-03-30T06:22:44.035Z,89.37
2023-03-30T06:25:24.076Z,89.06
2023-03-30T06:27:52.414Z,88.69
2023-03-30T06:30:20.724Z,88.68
2023-03-30T06:32:52.183Z,87.41
2023-03-30T06:35:50.707Z,86.69
2023-03-30T06:38:21.845Z,86.54
2023-03-30T06:40:51.664Z,85.67
2023-03-30T06:43:22.547Z,84.14
2023-03-30T06:46:09.612Z,83.92
2023-03-30T06:48:38.700Z,83.07
2023-03-30T06:51:25.582Z,81.92
2023-03-30T06:53:56.750Z,82.19
2023-03-30T06:56:24.945Z,82.02
2023-03-30T06:59:20.198Z,81.09
2023-03-30T07:02:26.901Z,80.41
2023-03-30T07:05:18.215Z,79.54
2023-03-30T07:08:02.761Z,79.50
2023-03-30T07:10:31.314Z,79.64
2023-03-30T07:13:00.735Z,80.06
2023-03-30T07:15:29.368Z,79.85
2023-03-30T07:17:58.013Z,79.74
2023-03-30T07:20:31.171Z,79.84
2023-03-30T07:23:14.030Z,77.13
2023-03-30T07:25:42.402Z,71.97
2023-03-30T07:28:17.869Z,71.14
2023-03-30T07:30:46.595Z,71.26
2023-03-30T07:33:15.419Z,71.30
2023-03-30T07:35:45.882Z,71.10
2023-03-30T07:38:15.091Z,70.67
2023-03-30T07:40:48.764Z,71.01
2023-03-30T07:43:17.757Z,70.03
2023-03-30T07:45:49.337Z,70.05
2023-03-30T07:48:24.296Z,70.57
2023-03-30T07:51:09.624Z,70.05
2023-03-30T07:53:42.262Z,69.53
2023-03-30T07:56:17.739Z,68.67
2023-03-30T07:58:52.033Z,68.79
2023-03-30T08:01:21.344Z,68.61
2023-03-30T08:03:52.864Z,67.23
2023-03-30T08:06:22.545Z,67.28
2023-03-30T08:08:53.640Z,67.58
2023-03-30T08:11:22.399Z,67.85
2023-03-30T08:13:52.141Z,66.58
2023-03-30T08:16:20.818Z,66.27
2023-03-30T08:18:49.131Z,65.81
2023-03-30T08:21:18.083Z,65.83
2023-03-30T08:23:46.272Z,65.32
2023-03-30T08:26:17.028Z,63.94
2023-03-30T08:28:45.252Z,63.73
2023-03-30T08:31:13.382Z,63.17
2023-03-30T08:33:41.821Z,62.53
2023-03-30T08:36:10.040Z,62.02
2023-03-30T08:38:42.926Z,62.23
2023-03-30T08:41:28.136Z,62.73
2023-03-30T08:44:01.005Z,62.46
2023-03-30T08:46:29.474Z,62.91
2023-03-30T08:48:59.943Z,63.57
2023-03-30T08:51:37.114Z,63.44
2023-03-30T08:54:06.946Z,62.76
2023-03-30T08:56:38.437Z,63.17
2023-03-30T08:59:15.509Z,63.57
2023-03-30T09:02:22.526Z,62.92
2023-03-30T09:05:05.578Z,62.94
2023-03-30T09:07:39.928Z,62.38
2023-03-30T09:10:12.189Z,62.17
2023-03-30T09:12:48.074Z,62.31
2023-03-30T09:15:32.108Z,61.27
2023-03-30T09:18:07.422Z,60.39
2023-03-30T09:20:36.450Z,59.86
2023-03-30T09:23:04.728Z,59.82
2023-03-30T09:25:45.001Z,58.95
2023-03-30T09:28:24.538Z,59.25
2023-03-30T09:30:54.959Z,60.16
2023-03-30T09:33:35.733Z,60.48
2023-03-30T09:36:18.969Z,61.17
2023-03-30T09:38:50.473Z,61.12
2023-03-30T09:41:50.019Z,59.62
2023-03-30T09:44:34.087Z,58.32
2023-03-30T09:47:02.341Z,57.48
2023-03-30T09:49:30.693Z,57.98
2023-03-30T09:52:04.072Z,57.64
2023-03-30T09:54:40.095Z,56.98
2023-03-30T09:57:31.669Z,57.20
2023-03-30T10:00:01.527Z,57.14
2023-03-30T10:02:40.843Z,56.14
2023-03-30T10:05:17.386Z,55.36
2023-03-30T10:07:45.684Z,55.43
2023-03-30T10:10:29.323Z,56.14
2023-03-30T10:13:04.745Z,55.15
2023-03-30T10:15:33.083Z,54.83
2023-03-30T10:18:02.779Z,54.31
2023-03-30T10:20:36.698Z,53.96
2023-03-30T10:23:05.791Z,53.95
2023-03-30T10:25:35.030Z,54.25
2023-03-30T10:28:04.976Z,54.74
2023-03-30T10:30:33.364Z,55.20
2023-03-30T10:33:02.229Z,54.28
2023-03-30T10:35:36.088Z,52.65
2023-03-30T10:38:05.256Z,51.93
2023-03-30T10:40:38.625Z,52.00
2023-03-30T10:43:12.818Z,52.10
2023-03-30T10:45:46.050Z,52.55
2023-03-30T10:48:36.281Z,53.13
2023-03-30T10:51:28.729Z,52.03
2023-03-30T10:54:11.750Z,51.62
2023-03-30T10:56:45.192Z,51.52
2023-03-30T10:59:35.064Z,50.72
2023-03-30T11:02:22.520Z,50.77
2023-03-30T11:05:09.960Z,50.59
2023-03-30T11:07:48.023Z,50.86
2023-03-30T11:10:18.258Z,50.60
2023-03-30T11:12:52.773Z,50.82
2023-03-30T11:15:31.487Z,48.86
2023-03-30T11:18:01.651Z,48.70
2023-03-30T11:20:56.683Z,48.77
2023-03-30T11:23:42.834Z,49.36
2023-03-30T11:26:12.843Z,48.85
2023-03-30T11:29:28.676Z,48.72
2023-03-30T11:31:59.868Z,49.12
2023-03-30T11:34:43.356Z,48.54
2023-03-30T11:37:30.001Z,47.17
2023-03-30T11:40:24.252Z,46.51
2023-03-30T11:42:54.076Z,46.32
2023-03-30T11:45:34.463Z,45.63
2023-03-30T11:48:20.070Z,45.48
2023-03-30T11:51:00.529Z,45.53
2023-03-30T11:53:48.767Z,45.79
2023-03-30T11:56:27.980Z,45.46
2023-03-30T11:59:07.192Z,45.82
2023-03-30T12:01:42.505Z,46.10
2023-03-30T12:04:11.954Z,46.19
2023-03-30T12:06:41.380Z,46.54
2023-03-30T12:09:31.378Z,46.87
2023-03-30T12:12:41.402Z,47.16
2023-03-30T12:15:31.482Z,47.54
2023-03-30T12:18:11.483Z,47.66
2023-03-30T12:21:17.214Z,47.64
2023-03-30T12:24:12.409Z,47.44
2023-03-30T12:26:42.552Z,47.53
2023-03-30T12:31:56.094Z,48.87
2023-03-30T12:34:26.444Z,48.41
2023-03-30T12:37:23.729Z,48.38
2023-03-30T12:40:06.966Z,48.72
2023-03-30T12:42:46.532Z,48.30
2023-03-30T12:45:24.141Z,47.51
2023-03-30T12:48:14.515Z,47.73
2023-03-30T12:51:11.818Z,48.39
2023-03-30T12:53:56.175Z,49.06
2023-03-30T12:56:55.428Z,49.77
2023-03-30T13:00:00.881Z,49.71
2023-03-30T13:02:38.774Z,49.09
2023-03-30T13:05:25.049Z,48.64
2023-03-30T13:07:55.366Z,48.21
2023-03-30T13:10:29.631Z,48.08
2023-03-30T13:12:58.632Z,47.93
2023-03-30T13:15:32.024Z,48.00
2023-03-30T13:18:02.811Z,48.00
2023-03-30T13:20:47.241Z,48.10
2023-03-30T13:23:19.956Z,48.63
2023-03-30T13:26:02.412Z,48.78
2023-03-30T13:29:10.381Z,48.31
2023-03-30T13:31:46.204Z,48.41
2023-03-30T13:34:16.997Z,48.92
2023-03-30T13:37:05.422Z,48.67
2023-03-30T13:39:43.057Z,48.56
2023-03-30T13:42:23.167Z,48.44
2023-03-30T13:45:24.900Z,48.59
2023-03-30T13:48:04.695Z,48.91
2023-03-30T13:50:34.811Z,49.01
2023-03-30T13:53:04.622Z,49.51
2023-03-30T13:55:44.622Z,49.17
2023-03-30T13:58:21.960Z,48.84
2023-03-30T14:00:52.061Z,48.99
2023-03-30T14:03:35.553Z,48.47
2023-03-30T14:06:13.689Z,48.51
2023-03-30T14:08:45.261Z,48.61
2023-03-30T14:11:22.542Z,48.44
2023-03-30T14:13:52.585Z,48.47
2023-03-30T14:16:26.177Z,48.29
2023-03-30T14:19:19.840Z,48.46
2023-03-30T14:21:48.695Z,48.17
2023-03-30T14:24:18.781Z,47.77
2023-03-30T14:26:47.633Z,47.85
2023-03-30T14:29:28.570Z,48.00
2023-03-30T14:32:10.293Z,48.10
2023-03-30T14:34:39.771Z,47.86
2023-03-30T14:37:08.295Z,47.96
2023-03-30T14:39:47.478Z,48.15
2023-03-30T14:42:20.932Z,48.32
2023-03-30T14:44:52.205Z,48.44
2023-03-30T14:47:22.855Z,48.46
2023-03-30T14:49:52.054Z,48.61
2023-03-30T14:52:22.121Z,48.93
2023-03-30T14:55:04.807Z,48.88
2023-03-30T14:57:38.631Z,48.66
2023-03-30T15:00:21.321Z,48.88
2023-03-30T15:03:00.074Z,48.89
2023-03-30T15:05:40.746Z,48.78
2023-03-30T15:08:27.907Z,48.83
2023-03-30T15:11:12.927Z,49.01
2023-03-30T15:13:47.248Z,48.91
2023-03-30T15:16:21.723Z,49.24
2023-03-30T15:18:55.854Z,49.09
2023-03-30T15:21:34.176Z,49.28
2023-03-30T15:24:02.432Z,49.58
2023-03-30T15:26:31.104Z,49.31
2023-03-30T15:29:15.547Z,49.41
2023-03-30T15:31:45.655Z,49.28
2023-03-30T15:34:17.244Z,49.22
2023-03-30T15:36:52.388Z,49.31
2023-03-30T15:39:34.339Z,49.47
2023-03-30T15:42:04.607Z,49.06
2023-03-30T15:44:37.298Z,49.08
2023-03-30T15:47:10.014Z,49.25
2023-03-30T15:49:42.914Z,49.15
2023-03-30T15:52:18.833Z,49.44
2023-03-30T15:54:50.712Z,49.69
2023-03-30T15:57:29.246Z,49.69
2023-03-30T16:00:02.235Z,49.88
2023-03-30T16:02:40.084Z,49.88
2023-03-30T16:05:17.027Z,50.04
2023-03-30T16:07:45.395Z,50.12
2023-03-30T16:10:14.806Z,50.24
2023-03-30T16:12:45.898Z,50.41
2023-03-30T16:15:15.362Z,50.47
2023-03-30T16:17:47.688Z,50.44
2023-03-30T16:20:18.325Z,50.47
2023-03-30T16:22:49.929Z,50.28
2023-03-30T16:25:21.344Z,50.39
2023-03-30T16:27:51.302Z,50.47
2023-03-30T16:30:30.868Z,50.84
2023-03-30T16:33:01.286Z,51.00
2023-03-30T16:35:29.636Z,50.87
2023-03-30T16:37:58.303Z,50.72
2023-03-30T16:40:42.212Z,50.64
2023-03-30T16:43:11.864Z,50.80
2023-03-30T16:45:40.564Z,50.97
2023-03-30T16:48:12.328Z,50.97
2023-03-30T16:50:47.712Z,51.22
2023-03-30T16:53:16.240Z,51.35
2023-03-30T16:55:44.411Z,51.46
2023-03-30T16:58:14.430Z,51.75
2023-03-30T17:00:50.418Z,51.80
2023-03-30T17:03:19.543Z,52.06
2023-03-30T17:05:49.710Z,52.25
2023-03-30T17:08:21.643Z,52.32
2023-03-30T17:10:50.043Z,52.41
2023-03-30T17:13:28.607Z,52.36
2023-03-30T17:16:16.715Z,52.41
2023-03-30T17:18:47.595Z,52.56
2023-03-30T17:21:18.406Z,52.82
2023-03-30T17:23:48.019Z,52.84
2023-03-30T17:26:17.691Z,53.03
2023-03-30T17:28:46.120Z,53.10
2023-03-30T17:31:21.329Z,53.23
2023-03-30T17:33:50.185Z,53.35
2023-03-30T17:36:25.493Z,53.56
2023-03-30T17:38:59.985Z,53.61
2023-03-30T17:41:28.097Z,53.78
2023-03-30T17:43:56.227Z,53.84
2023-03-30T17:46:24.334Z,53.99
2023-03-30T17:48:52.600Z,54.29
2023-03-30T17:51:20.749Z,54.39
2023-03-30T17:53:49.092Z,54.41
2023-03-30T17:56:19.991Z,54.71
2023-03-30T17:58:49.755Z,54.85
2023-03-30T18:01:18.123Z,54.85
2023-03-30T18:03:47.725Z,55.01
2023-03-30T18:06:16.430Z,55.06
2023-03-30T18:08:44.546Z,55.32
2023-03-30T18:11:12.675Z,55.39
2023-03-30T18:13:41.381Z,55.51
2023-03-30T18:16:11.062Z,55.51
2023-03-30T18:18:39.854Z,55.57
2023-03-30T18:21:09.619Z,55.75
2023-03-30T18:23:43.895Z,55.85
2023-03-30T18:26:13.062Z,55.91
2023-03-30T18:28:44.070Z,56.13
2023-03-30T18:31:12.948Z,56.23
2023-03-30T18:33:41.416Z,56.18
2023-03-30T18:36:13.454Z,56.24
2023-03-30T18:38:42.457Z,56.47
2023-03-30T18:41:13.007Z,56.36
2023-03-30T18:43:41.407Z,56.51
2023-03-30T18:46:11.271Z,56.80
2023-03-30T18:48:41.959Z,56.77
2023-03-30T18:51:11.830Z,56.90
2023-03-30T18:53:42.741Z,56.89
2023-03-30T18:56:11.697Z,57.13
2023-03-30T18:58:42.416Z,57.24
2023-03-30T19:01:16.071Z,57.35
2023-03-30T19:03:45.354Z,57.30
2023-03-30T19:06:16.622Z,57.54
2023-03-30T19:08:44.903Z,57.69
2023-03-30T19:11:15.768Z,57.85
2023-03-30T19:13:43.940Z,58.07
2023-03-30T19:16:13.829Z,58.16
2023-03-30T19:18:43.246Z,58.12
2023-03-30T19:21:16.771Z,58.22
2023-03-30T19:23:44.951Z,58.21
2023-03-30T19:26:13.284Z,58.36
2023-03-30T19:28:41.546Z,58.41
2023-03-30T19:31:16.499Z,58.45
2023-03-30T19:33:45.098Z,58.44
2023-03-30T19:36:14.316Z,58.60
2023-03-30T19:38:44.224Z,58.71
2023-03-30T19:41:12.716Z,59.40
2023-03-30T19:43:42.391Z,59.59
2023-03-30T19:46:10.586Z,59.88
2023-03-30T19:48:38.755Z,60.23
2023-03-30T19:51:07.170Z,60.64
2023-03-30T19:53:38.332Z,60.89
2023-03-30T19:56:10.453Z,61.06
2023-03-30T19:58:38.954Z,61.08
2023-03-30T20:01:08.297Z,61.12
2023-03-30T20:03:37.678Z,61.10
2023-03-30T20:06:10.033Z,61.12
2023-03-30T20:08:39.630Z,61.30
2023-03-30T20:11:08.985Z,61.19
2023-03-30T20:13:37.366Z,61.42
2023-03-30T20:16:06.235Z,61.67
2023-03-30T20:18:35.779Z,61.82
2023-03-30T20:21:04.646Z,62.03
2023-03-30T20:23:33.501Z,61.99
2023-03-30T20:26:04.578Z,62.28
2023-03-30T20:28:34.176Z,62.30
2023-03-30T20:31:03.068Z,62.29
2023-03-30T20:33:35.050Z,62.46
2023-03-30T20:36:03.336Z,62.80
2023-03-30T20:38:31.860Z,63.07
2023-03-30T20:41:04.648Z,63.47
2023-03-30T20:43:38.393Z,63.91
2023-03-30T20:46:14.223Z,64.35
2023-03-30T20:48:42.941Z,64.79
2023-03-30T20:51:13.465Z,65.03
2023-03-30T20:53:42.588Z,64.84
2023-03-30T20:56:11.129Z,64.89
2023-03-30T20:58:39.690Z,65.19
2023-03-30T21:01:28.402Z,65.24
2023-03-30T21:03:58.831Z,65.28
2023-03-30T21:06:28.522Z,65.44
2023-03-30T21:08:58.840Z,65.36
2023-03-30T21:11:27.937Z,65.48
2023-03-30T21:14:02.238Z,65.55
2023-03-30T21:16:31.789Z,66.39
2023-03-30T21:19:00.974Z,66.60
2023-03-30T21:21:31.530Z,66.59
2023-03-30T21:24:01.793Z,66.83
2023-03-30T21:26:30.572Z,66.87
2023-03-30T21:28:58.820Z,66.82
2023-03-30T21:31:28.537Z,67.05
2023-03-30T21:33:57.804Z,67.02
2023-03-30T21:36:26.090Z,66.66
2023-03-30T21:38:56.236Z,66.19
2023-03-30T21:41:26.320Z,65.48
2023-03-30T21:43:54.772Z,64.52
2023-03-30T21:46:24.132Z,64.55
2023-03-30T21:48:55.954Z,65.31
2023-03-30T21:51:29.087Z,65.37
2023-03-30T21:53:59.452Z,65.98
2023-03-30T21:56:29.560Z,66.22
2023-03-30T21:58:58.949Z,66.74
2023-03-30T22:01:28.264Z,67.11
2023-03-30T22:03:56.978Z,67.64
2023-03-30T22:06:25.393Z,68.10
2023-03-30T22:08:53.800Z,68.30
2023-03-30T22:11:23.662Z,68.61
2023-03-30T22:13:55.790Z,69.09
2023-03-30T22:16:28.843Z,69.66
2023-03-30T22:19:13.233Z,69.55
2023-03-30T22:21:41.485Z,69.52
2023-03-30T22:24:11.271Z,69.43
2023-03-30T22:26:40.838Z,69.75
2023-03-30T22:29:09.076Z,69.76
2023-03-30T22:31:41.521Z,70.27
2023-03-30T22:34:10.668Z,70.54
2023-03-30T22:36:39.268Z,70.98
2023-03-30T22:39:07.519Z,71.35
2023-03-30T22:41:36.411Z,71.94
2023-03-30T22:44:04.852Z,72.49
2023-03-30T22:46:34.633Z,73.23
2023-03-30T22:49:03.867Z,73.64
2023-03-30T22:51:34.058Z,73.93
2023-03-30T22:54:02.484Z,74.42
2023-03-30T22:56:32.295Z,74.72
2023-03-30T22:59:01.476Z,75.34
2023-03-30T23:01:32.416Z,75.69
2023-03-30T23:04:03.393Z,75.91
2023-03-30T23:06:33.913Z,76.16
2023-03-30T23:09:03.747Z,76.39
2023-03-30T23:11:34.499Z,76.66
2023-03-30T23:14:05.528Z,77.22
2023-03-30T23:16:34.378Z,77.40
2023-03-30T23:19:04.668Z,77.74
2023-03-30T23:21:36.127Z,78.02
2023-03-30T23:24:10.827Z,78.18
2023-03-30T23:26:39.458Z,78.62
2023-03-30T23:29:07.627Z,78.73
2023-03-30T23:31:36.674Z,78.20
2023-03-30T23:34:05.239Z,77.78
2023-03-30T23:36:35.031Z,77.47
2023-03-30T23:39:03.396Z,77.53
2023-03-30T23:41:31.949Z,77.55
2023-03-30T23:44:00.138Z,77.65
2023-03-30T23:46:29.168Z,77.54
2023-03-30T23:48:57.431Z,77.82
2023-03-30T23:51:25.921Z,77.91
2023-03-30T23:53:57.047Z,78.08
2023-03-30T23:56:27.822Z,78.25
2023-03-30T23:58:56.971Z,78.55
